sensor_id;sensor_type;location;lat;lon;timestamp;pressure;altitude;pressure_sealevel;temperature;humidity
68179;BME280;69812;42.632;23.440;2023-07-08T00:02:13;95372.00;;;18.18;73.84
68179;BME280;69812;42.632;23.440;2023-07-08T00:04:39;95362.66;;;18.09;75.00
68179;BME280;69812;42.632;23.440;2023-07-08T00:07:05;95365.16;;;18.02;74.58
68179;BME280;69812;42.632;23.440;2023-07-08T00:09:35;95357.13;;;17.89;75.39
68179;BME280;69812;42.632;23.440;2023-07-08T00:12:01;95358.63;;;17.83;75.62
68179;BME280;69812;42.632;23.440;2023-07-08T00:14:26;95352.63;;;17.75;75.58
68179;BME280;69812;42.632;23.440;2023-07-08T00:16:51;95343.09;;;17.67;76.18
68179;BME280;69812;42.632;23.440;2023-07-08T00:19:21;95351.41;;;17.62;76.51
68179;BME280;69812;42.632;23.440;2023-07-08T00:21:51;95345.13;;;17.57;77.12
68179;BME280;69812;42.632;23.440;2023-07-08T00:24:19;95334.16;;;17.47;77.19
68179;BME280;69812;42.632;23.440;2023-07-08T00:26:47;95347.75;;;17.49;76.62
68179;BME280;69812;42.632;23.440;2023-07-08T00:29:20;95329.63;;;17.40;77.38
68179;BME280;69812;42.632;23.440;2023-07-08T00:31:47;95330.44;;;17.41;77.43
68179;BME280;69812;42.632;23.440;2023-07-08T00:34:13;95332.41;;;17.39;77.13
68179;BME280;69812;42.632;23.440;2023-07-08T00:36:40;95339.50;;;17.45;77.12
68179;BME280;69812;42.632;23.440;2023-07-08T00:39:15;95336.28;;;17.43;77.21
68179;BME280;69812;42.632;23.440;2023-07-08T00:41:42;95329.69;;;17.32;77.62
68179;BME280;69812;42.632;23.440;2023-07-08T00:44:11;95336.16;;;17.36;77.26
68179;BME280;69812;42.632;23.440;2023-07-08T00:46:57;95331.44;;;17.40;77.14
68179;BME280;69812;42.632;23.440;2023-07-08T00:49:34;95336.19;;;17.28;77.44
68179;BME280;69812;42.632;23.440;2023-07-08T00:52:23;95331.22;;;17.18;78.11
68179;BME280;69812;42.632;23.440;2023-07-08T00:54:53;95324.69;;;17.31;77.46
68179;BME280;69812;42.632;23.440;2023-07-08T00:57:23;95331.34;;;17.25;78.48
68179;BME280;69812;42.632;23.440;2023-07-08T00:59:55;95320.16;;;17.24;78.19
68179;BME280;69812;42.632;23.440;2023-07-08T01:02:29;95314.59;;;17.04;78.84
68179;BME280;69812;42.632;23.440;2023-07-08T01:05:05;95315.72;;;17.02;78.91
68179;BME280;69812;42.632;23.440;2023-07-08T01:07:33;95308.56;;;17.04;78.80
68179;BME280;69812;42.632;23.440;2023-07-08T01:10:06;95305.81;;;17.06;78.67
68179;BME280;69812;42.632;23.440;2023-07-08T01:12:53;95295.06;;;16.86;79.33
68179;BME280;69812;42.632;23.440;2023-07-08T01:15:23;95283.88;;;16.85;79.31
68179;BME280;69812;42.632;23.440;2023-07-08T01:17:51;95289.19;;;16.92;79.24
68179;BME280;69812;42.632;23.440;2023-07-08T01:20:19;95297.78;;;16.92;78.71
68179;BME280;69812;42.632;23.440;2023-07-08T01:22:46;95291.03;;;16.83;79.50
68179;BME280;69812;42.632;23.440;2023-07-08T01:25:17;95295.84;;;16.86;79.05
68179;BME280;69812;42.632;23.440;2023-07-08T01:27:47;95301.66;;;16.96;78.83
68179;BME280;69812;42.632;23.440;2023-07-08T01:30:14;95291.03;;;16.83;79.60
68179;BME280;69812;42.632;23.440;2023-07-08T01:32:45;95283.66;;;16.95;78.72
68179;BME280;69812;42.632;23.440;2023-07-08T01:35:18;95277.34;;;16.97;78.58
68179;BME280;69812;42.632;23.440;2023-07-08T01:37:53;95284.81;;;16.92;78.97
68179;BME280;69812;42.632;23.440;2023-07-08T01:40:34;95289.38;;;16.82;79.42
68179;BME280;69812;42.632;23.440;2023-07-08T01:43:05;95288.72;;;16.88;79.80
68179;BME280;69812;42.632;23.440;2023-07-08T01:45:43;95290.97;;;16.91;78.79
68179;BME280;69812;42.632;23.440;2023-07-08T01:48:14;95293.41;;;16.84;79.47
68179;BME280;69812;42.632;23.440;2023-07-08T01:50:47;95296.00;;;16.84;79.33
68179;BME280;69812;42.632;23.440;2023-07-08T01:53:19;95309.81;;;16.69;80.60
68179;BME280;69812;42.632;23.440;2023-07-08T01:55:56;95308.53;;;16.64;80.35
68179;BME280;69812;42.632;23.440;2023-07-08T01:58:22;95290.91;;;16.52;80.66
68179;BME280;69812;42.632;23.440;2023-07-08T02:00:47;95303.03;;;16.68;80.07
68179;BME280;69812;42.632;23.440;2023-07-08T02:03:15;95289.88;;;16.69;79.53
68179;BME280;69812;42.632;23.440;2023-07-08T02:05:41;95296.84;;;16.69;80.25
68179;BME280;69812;42.632;23.440;2023-07-08T02:08:09;95291.84;;;16.59;80.16
68179;BME280;69812;42.632;23.440;2023-07-08T02:10:34;95282.69;;;16.48;80.51
68179;BME280;69812;42.632;23.440;2023-07-08T02:13:10;95299.94;;;16.64;80.73
68179;BME280;69812;42.632;23.440;2023-07-08T02:15:38;95297.88;;;16.59;80.28
68179;BME280;69812;42.632;23.440;2023-07-08T02:18:08;95300.13;;;16.54;80.90
68179;BME280;69812;42.632;23.440;2023-07-08T02:20:34;95312.09;;;16.63;80.39
68179;BME280;69812;42.632;23.440;2023-07-08T02:23:02;95304.66;;;16.60;80.12
68179;BME280;69812;42.632;23.440;2023-07-08T02:25:37;95307.41;;;16.59;80.33
68179;BME280;69812;42.632;23.440;2023-07-08T02:28:03;95302.84;;;16.61;79.98
68179;BME280;69812;42.632;23.440;2023-07-08T02:30:31;95314.19;;;16.68;79.56
68179;BME280;69812;42.632;23.440;2023-07-08T02:32:56;95314.06;;;16.61;80.35
68179;BME280;69812;42.632;23.440;2023-07-08T02:35:29;95327.66;;;16.63;80.11
68179;BME280;69812;42.632;23.440;2023-07-08T02:37:57;95342.84;;;16.75;79.92
68179;BME280;69812;42.632;23.440;2023-07-08T02:40:24;95338.63;;;16.74;79.71
68179;BME280;69812;42.632;23.440;2023-07-08T02:42:54;95339.31;;;16.68;80.66
68179;BME280;69812;42.632;23.440;2023-07-08T02:45:22;95341.06;;;16.75;80.01
68179;BME280;69812;42.632;23.440;2023-07-08T02:47:48;95343.50;;;16.77;79.98
68179;BME280;69812;42.632;23.440;2023-07-08T02:50:13;95350.00;;;16.81;79.31
68179;BME280;69812;42.632;23.440;2023-07-08T02:52:39;95348.97;;;16.74;79.07
68179;BME280;69812;42.632;23.440;2023-07-08T02:55:04;95342.50;;;16.70;79.64
68179;BME280;69812;42.632;23.440;2023-07-08T02:57:30;95346.41;;;16.74;79.99
68179;BME280;69812;42.632;23.440;2023-07-08T02:59:57;95329.88;;;16.75;79.21
68179;BME280;69812;42.632;23.440;2023-07-08T03:02:26;95355.63;;;16.84;79.03
68179;BME280;69812;42.632;23.440;2023-07-08T03:04:54;95346.41;;;16.82;78.92
68179;BME280;69812;42.632;23.440;2023-07-08T03:07:19;95362.75;;;16.91;78.68
68179;BME280;69812;42.632;23.440;2023-07-08T03:09:45;95356.25;;;16.95;78.33
68179;BME280;69812;42.632;23.440;2023-07-08T03:12:15;95354.47;;;16.87;78.40
68179;BME280;69812;42.632;23.440;2023-07-08T03:14:43;95352.22;;;16.92;78.60
68179;BME280;69812;42.632;23.440;2023-07-08T03:17:10;95363.41;;;16.84;79.58
68179;BME280;69812;42.632;23.440;2023-07-08T03:19:36;95359.50;;;16.97;78.15
68179;BME280;69812;42.632;23.440;2023-07-08T03:22:01;95348.31;;;16.96;78.27
68179;BME280;69812;42.632;23.440;2023-07-08T03:24:30;95350.06;;;17.04;78.44
68179;BME280;69812;42.632;23.440;2023-07-08T03:26:57;95360.56;;;17.11;78.21
68179;BME280;69812;42.632;23.440;2023-07-08T03:29:25;95340.81;;;17.10;77.28
68179;BME280;69812;42.632;23.440;2023-07-08T03:31:53;95348.25;;;17.13;77.40
68179;BME280;69812;42.632;23.440;2023-07-08T03:34:32;95338.13;;;17.26;76.19
68179;BME280;69812;42.632;23.440;2023-07-08T03:37:00;95348.81;;;17.31;76.83
68179;BME280;69812;42.632;23.440;2023-07-08T03:39:26;95352.63;;;17.43;75.86
68179;BME280;69812;42.632;23.440;2023-07-08T03:41:52;95345.03;;;17.42;76.38
68179;BME280;69812;42.632;23.440;2023-07-08T03:44:27;95335.59;;;17.49;76.31
68179;BME280;69812;42.632;23.440;2023-07-08T03:46:52;95331.44;;;17.63;75.49
68179;BME280;69812;42.632;23.440;2023-07-08T03:49:21;95329.84;;;17.62;75.22
68179;BME280;69812;42.632;23.440;2023-07-08T03:52:00;95340.63;;;17.74;75.12
68179;BME280;69812;42.632;23.440;2023-07-08T03:54:26;95338.50;;;18.23;73.45
68179;BME280;69812;42.632;23.440;2023-07-08T03:57:02;95346.22;;;19.65;67.98
68179;BME280;69812;42.632;23.440;2023-07-08T03:59:27;95346.63;;;20.55;63.28
68179;BME280;69812;42.632;23.440;2023-07-08T04:01:58;95331.47;;;22.23;58.84
68179;BME280;69812;42.632;23.440;2023-07-08T04:04:23;95343.09;;;22.67;56.40
68179;BME280;69812;42.632;23.440;2023-07-08T04:06:54;95355.91;;;23.15;55.20
68179;BME280;69812;42.632;23.440;2023-07-08T04:09:20;95333.75;;;24.02;52.94
68179;BME280;69812;42.632;23.440;2023-07-08T04:11:47;95342.50;;;23.44;53.87
68179;BME280;69812;42.632;23.440;2023-07-08T04:14:13;95333.97;;;23.62;53.28
68179;BME280;69812;42.632;23.440;2023-07-08T04:16:53;95356.84;;;23.86;52.47
68179;BME280;69812;42.632;23.440;2023-07-08T04:19:19;95352.56;;;23.92;51.65
68179;BME280;69812;42.632;23.440;2023-07-08T04:21:45;95358.44;;;24.19;51.61
68179;BME280;69812;42.632;23.440;2023-07-08T04:24:16;95356.75;;;24.82;49.66
68179;BME280;69812;42.632;23.440;2023-07-08T04:26:43;95353.16;;;24.76;49.24
68179;BME280;69812;42.632;23.440;2023-07-08T04:29:16;95348.19;;;25.30;48.80
68179;BME280;69812;42.632;23.440;2023-07-08T04:31:42;95338.47;;;25.12;48.52
68179;BME280;69812;42.632;23.440;2023-07-08T04:34:10;95346.00;;;25.75;46.90
68179;BME280;69812;42.632;23.440;2023-07-08T04:36:36;95349.63;;;26.47;45.92
68179;BME280;69812;42.632;23.440;2023-07-08T04:39:05;95350.09;;;26.67;45.49
68179;BME280;69812;42.632;23.440;2023-07-08T04:41:36;95344.31;;;26.23;45.92
68179;BME280;69812;42.632;23.440;2023-07-08T04:44:08;95348.06;;;26.81;44.45
68179;BME280;69812;42.632;23.440;2023-07-08T04:46:56;95352.53;;;26.92;43.95
68179;BME280;69812;42.632;23.440;2023-07-08T04:49:34;95345.78;;;27.49;42.58
68179;BME280;69812;42.632;23.440;2023-07-08T04:52:02;95346.91;;;27.24;43.33
68179;BME280;69812;42.632;23.440;2023-07-08T04:54:32;95333.47;;;27.37;41.98
68179;BME280;69812;42.632;23.440;2023-07-08T04:56:57;95358.59;;;26.93;43.10
68179;BME280;69812;42.632;23.440;2023-07-08T04:59:24;95335.09;;;27.27;42.87
68179;BME280;69812;42.632;23.440;2023-07-08T05:01:53;95353.47;;;27.79;42.07
68179;BME280;69812;42.632;23.440;2023-07-08T05:04:20;95355.34;;;27.38;42.70
68179;BME280;69812;42.632;23.440;2023-07-08T05:06:46;95358.31;;;27.30;42.61
68179;BME280;69812;42.632;23.440;2023-07-08T05:09:11;95362.25;;;27.84;41.50
68179;BME280;69812;42.632;23.440;2023-07-08T05:11:39;95363.19;;;29.25;39.49
68179;BME280;69812;42.632;23.440;2023-07-08T05:14:05;95357.94;;;29.47;38.33
68179;BME280;69812;42.632;23.440;2023-07-08T05:16:34;95369.91;;;29.33;36.99
68179;BME280;69812;42.632;23.440;2023-07-08T05:19:03;95367.94;;;30.49;36.42
68179;BME280;69812;42.632;23.440;2023-07-08T05:21:33;95378.63;;;30.97;36.36
68179;BME280;69812;42.632;23.440;2023-07-08T05:24:11;95369.25;;;29.65;37.26
68179;BME280;69812;42.632;23.440;2023-07-08T05:26:39;95370.88;;;27.80;40.67
68179;BME280;69812;42.632;23.440;2023-07-08T05:29:04;95371.25;;;25.28;47.02
68179;BME280;69812;42.632;23.440;2023-07-08T05:31:30;95372.50;;;25.74;46.46
68179;BME280;69812;42.632;23.440;2023-07-08T05:33:57;95379.00;;;24.97;48.67
68179;BME280;69812;42.632;23.440;2023-07-08T05:36:25;95362.09;;;26.51;44.96
68179;BME280;69812;42.632;23.440;2023-07-08T05:38:50;95375.94;;;26.47;43.81
68179;BME280;69812;42.632;23.440;2023-07-08T05:41:20;95378.34;;;27.19;43.63
68179;BME280;69812;42.632;23.440;2023-07-08T05:43:45;95355.78;;;27.87;39.57
68179;BME280;69812;42.632;23.440;2023-07-08T05:46:14;95381.25;;;27.29;43.05
68179;BME280;69812;42.632;23.440;2023-07-08T05:48:41;95378.63;;;26.94;42.78
68179;BME280;69812;42.632;23.440;2023-07-08T05:51:07;95375.72;;;27.42;42.43
68179;BME280;69812;42.632;23.440;2023-07-08T05:53:35;95387.44;;;28.04;40.83
68179;BME280;69812;42.632;23.440;2023-07-08T05:56:04;95388.50;;;29.82;37.19
68179;BME280;69812;42.632;23.440;2023-07-08T05:58:36;95389.22;;;30.59;35.39
68179;BME280;69812;42.632;23.440;2023-07-08T06:01:02;95384.00;;;30.10;36.38
68179;BME280;69812;42.632;23.440;2023-07-08T06:03:27;95398.03;;;31.02;35.26
68179;BME280;69812;42.632;23.440;2023-07-08T06:05:57;95393.72;;;29.77;36.76
68179;BME280;69812;42.632;23.440;2023-07-08T06:08:28;95381.13;;;28.67;38.30
68179;BME280;69812;42.632;23.440;2023-07-08T06:10:56;95390.22;;;28.26;39.27
68179;BME280;69812;42.632;23.440;2023-07-08T06:13:34;95395.31;;;29.56;36.47
68179;BME280;69812;42.632;23.440;2023-07-08T06:16:02;95383.03;;;28.89;37.35
68179;BME280;69812;42.632;23.440;2023-07-08T06:18:30;95398.66;;;29.29;37.33
68179;BME280;69812;42.632;23.440;2023-07-08T06:20:58;95414.38;;;30.29;35.31
68179;BME280;69812;42.632;23.440;2023-07-08T06:23:24;95387.84;;;30.52;35.43
68179;BME280;69812;42.632;23.440;2023-07-08T06:25:50;95391.22;;;29.93;37.22
68179;BME280;69812;42.632;23.440;2023-07-08T06:28:18;95405.75;;;29.68;37.34
68179;BME280;69812;42.632;23.440;2023-07-08T06:30:49;95410.25;;;28.73;39.01
68179;BME280;69812;42.632;23.440;2023-07-08T06:33:17;95417.44;;;27.86;40.76
68179;BME280;69812;42.632;23.440;2023-07-08T06:35:45;95396.66;;;27.61;42.28
68179;BME280;69812;42.632;23.440;2023-07-08T06:38:10;95412.03;;;25.30;46.69
68179;BME280;69812;42.632;23.440;2023-07-08T06:40:36;95411.94;;;25.18;47.22
68179;BME280;69812;42.632;23.440;2023-07-08T06:43:10;95392.28;;;23.37;50.41
68179;BME280;69812;42.632;23.440;2023-07-08T06:45:36;95401.59;;;23.26;52.02
68179;BME280;69812;42.632;23.440;2023-07-08T06:48:01;95384.63;;;23.49;50.23
68179;BME280;69812;42.632;23.440;2023-07-08T06:50:37;95397.75;;;23.42;51.13
68179;BME280;69812;42.632;23.440;2023-07-08T06:53:05;95399.06;;;22.66;52.29
68179;BME280;69812;42.632;23.440;2023-07-08T06:55:32;95425.56;;;21.68;55.05
68179;BME280;69812;42.632;23.440;2023-07-08T06:57:59;95419.69;;;21.53;56.60
68179;BME280;69812;42.632;23.440;2023-07-08T07:00:27;95422.69;;;21.43;56.00
68179;BME280;69812;42.632;23.440;2023-07-08T07:02:53;95411.28;;;20.88;56.55
68179;BME280;69812;42.632;23.440;2023-07-08T07:05:18;95425.56;;;20.92;57.35
68179;BME280;69812;42.632;23.440;2023-07-08T07:07:44;95414.19;;;21.00;57.23
68179;BME280;69812;42.632;23.440;2023-07-08T07:10:11;95401.88;;;21.63;56.03
68179;BME280;69812;42.632;23.440;2023-07-08T07:12:44;95413.59;;;21.87;54.45
68179;BME280;69812;42.632;23.440;2023-07-08T07:15:09;95419.56;;;22.36;52.72
68179;BME280;69812;42.632;23.440;2023-07-08T07:17:35;95424.38;;;23.19;50.51
68179;BME280;69812;42.632;23.440;2023-07-08T07:23:06;95435.88;;;22.71;51.59
68179;BME280;69812;42.632;23.440;2023-07-08T07:25:34;95416.72;;;23.11;50.22
68179;BME280;69812;42.632;23.440;2023-07-08T07:28:02;95435.88;;;22.85;50.81
68179;BME280;69812;42.632;23.440;2023-07-08T07:30:30;95434.22;;;23.24;50.01
68179;BME280;69812;42.632;23.440;2023-07-08T07:33:03;95423.28;;;23.53;50.25
68179;BME280;69812;42.632;23.440;2023-07-08T07:35:28;95422.13;;;24.26;48.55
68179;BME280;69812;42.632;23.440;2023-07-08T07:37:57;95432.94;;;24.05;47.69
68179;BME280;69812;42.632;23.440;2023-07-08T07:40:22;95429.00;;;24.27;48.41
68179;BME280;69812;42.632;23.440;2023-07-08T07:42:52;95442.34;;;24.57;47.65
68179;BME280;69812;42.632;23.440;2023-07-08T07:45:19;95440.53;;;24.83;46.46
68179;BME280;69812;42.632;23.440;2023-07-08T07:47:54;95424.63;;;25.21;45.11
68179;BME280;69812;42.632;23.440;2023-07-08T07:50:39;95422.88;;;25.71;43.79
68179;BME280;69812;42.632;23.440;2023-07-08T07:53:17;95436.19;;;26.25;43.43
68179;BME280;69812;42.632;23.440;2023-07-08T07:55:46;95429.91;;;25.77;43.81
68179;BME280;69812;42.632;23.440;2023-07-08T07:58:13;95428.97;;;28.25;39.11
68179;BME280;69812;42.632;23.440;2023-07-08T08:00:41;95429.66;;;30.82;34.25
68179;BME280;69812;42.632;23.440;2023-07-08T08:03:09;95420.63;;;33.13;30.30
68179;BME280;69812;42.632;23.440;2023-07-08T08:05:40;95425.47;;;34.31;28.91
68179;BME280;69812;42.632;23.440;2023-07-08T08:08:13;95422.03;;;34.70;27.80
68179;BME280;69812;42.632;23.440;2023-07-08T08:10:45;95419.78;;;34.03;27.83
68179;BME280;69812;42.632;23.440;2023-07-08T08:13:12;95407.81;;;32.18;30.55
68179;BME280;69812;42.632;23.440;2023-07-08T08:15:38;95407.97;;;31.80;31.14
68179;BME280;69812;42.632;23.440;2023-07-08T08:18:05;95383.09;;;30.54;32.88
68179;BME280;69812;42.632;23.440;2023-07-08T08:20:31;95406.81;;;29.67;35.06
68179;BME280;69812;42.632;23.440;2023-07-08T08:22:56;95416.47;;;29.56;36.07
68179;BME280;69812;42.632;23.440;2023-07-08T08:25:25;95412.50;;;31.90;32.55
68179;BME280;69812;42.632;23.440;2023-07-08T08:27:53;95409.94;;;33.28;30.42
68179;BME280;69812;42.632;23.440;2023-07-08T08:30:19;95411.88;;;32.71;29.48
68179;BME280;69812;42.632;23.440;2023-07-08T08:32:47;95423.69;;;31.97;31.42
68179;BME280;69812;42.632;23.440;2023-07-08T08:35:15;95412.28;;;31.39;31.95
68179;BME280;69812;42.632;23.440;2023-07-08T08:37:45;95403.28;;;32.13;30.93
68179;BME280;69812;42.632;23.440;2023-07-08T08:40:20;95410.84;;;29.69;35.26
68179;BME280;69812;42.632;23.440;2023-07-08T08:43:28;95413.63;;;29.02;36.88
68179;BME280;69812;42.632;23.440;2023-07-08T08:46:04;95399.91;;;29.66;36.18
68179;BME280;69812;42.632;23.440;2023-07-08T08:48:46;95387.97;;;29.19;35.95
68179;BME280;69812;42.632;23.440;2023-07-08T08:51:18;95386.97;;;30.73;34.24
68179;BME280;69812;42.632;23.440;2023-07-08T08:53:46;95395.28;;;30.27;34.45
68179;BME280;69812;42.632;23.440;2023-07-08T08:56:29;95394.16;;;30.45;34.10
68179;BME280;69812;42.632;23.440;2023-07-08T09:01:23;95409.88;;;27.37;39.29
68179;BME280;69812;42.632;23.440;2023-07-08T09:04:02;95402.06;;;25.69;43.77
68179;BME280;69812;42.632;23.440;2023-07-08T09:06:30;95410.03;;;24.82;46.53
68179;BME280;69812;42.632;23.440;2023-07-08T09:09:09;95387.13;;;24.39;47.83
68179;BME280;69812;42.632;23.440;2023-07-08T09:11:55;95414.31;;;23.81;48.03
68179;BME280;69812;42.632;23.440;2023-07-08T09:14:27;95411.78;;;23.54;49.13
68179;BME280;69812;42.632;23.440;2023-07-08T09:17:17;95404.66;;;23.82;51.07
68179;BME280;69812;42.632;23.440;2023-07-08T09:20:27;95399.34;;;23.95;50.11
68179;BME280;69812;42.632;23.440;2023-07-08T09:23:09;95393.78;;;23.78;49.39
68179;BME280;69812;42.632;23.440;2023-07-08T09:26:23;95397.28;;;24.04;49.51
68179;BME280;69812;42.632;23.440;2023-07-08T09:28:56;95401.50;;;23.53;51.48
68179;BME280;69812;42.632;23.440;2023-07-08T09:34:54;95407.22;;;24.20;49.94
68179;BME280;69812;42.632;23.440;2023-07-08T09:37:33;95377.88;;;24.05;48.50
68179;BME280;69812;42.632;23.440;2023-07-08T09:40:03;95386.69;;;24.17;48.72
68179;BME280;69812;42.632;23.440;2023-07-08T09:42:33;95388.53;;;24.16;49.05
68179;BME280;69812;42.632;23.440;2023-07-08T09:45:19;95394.16;;;24.13;48.03
68179;BME280;69812;42.632;23.440;2023-07-08T09:47:46;95381.38;;;23.98;48.49
68179;BME280;69812;42.632;23.440;2023-07-08T09:50:15;95384.63;;;24.26;48.70
68179;BME280;69812;42.632;23.440;2023-07-08T09:52:43;95386.94;;;24.40;48.65
68179;BME280;69812;42.632;23.440;2023-07-08T09:55:14;95382.84;;;24.51;46.84
68179;BME280;69812;42.632;23.440;2023-07-08T09:57:40;95371.25;;;24.59;46.17
68179;BME280;69812;42.632;23.440;2023-07-08T10:00:18;95373.38;;;24.44;46.76
68179;BME280;69812;42.632;23.440;2023-07-08T10:02:46;95374.38;;;24.49;47.78
68179;BME280;69812;42.632;23.440;2023-07-08T10:07:39;95372.50;;;24.56;47.00
68179;BME280;69812;42.632;23.440;2023-07-08T10:10:10;95377.38;;;24.78;46.68
68179;BME280;69812;42.632;23.440;2023-07-08T10:12:49;95380.09;;;24.90;45.73
68179;BME280;69812;42.632;23.440;2023-07-08T10:15:20;95387.47;;;24.99;45.86
68179;BME280;69812;42.632;23.440;2023-07-08T10:17:47;95380.72;;;24.85;45.69
68179;BME280;69812;42.632;23.440;2023-07-08T10:20:13;95368.78;;;24.89;46.90
68179;BME280;69812;42.632;23.440;2023-07-08T10:22:52;95377.09;;;24.86;45.88
68179;BME280;69812;42.632;23.440;2023-07-08T10:25:36;95360.88;;;24.71;45.50
68179;BME280;69812;42.632;23.440;2023-07-08T10:31:19;95360.44;;;24.74;46.27
68179;BME280;69812;42.632;23.440;2023-07-08T10:42:01;95350.94;;;24.48;46.14
68179;BME280;69812;42.632;23.440;2023-07-08T10:45:38;95350.78;;;24.49;47.98
68179;BME280;69812;42.632;23.440;2023-07-08T10:56:20;95334.31;;;24.86;45.23
68179;BME280;69812;42.632;23.440;2023-07-08T10:59:12;95334.84;;;25.31;44.16
68179;BME280;69812;42.632;23.440;2023-07-08T11:04:50;95335.00;;;26.62;39.76
68179;BME280;69812;42.632;23.440;2023-07-08T11:07:45;95337.81;;;27.32;39.99
68179;BME280;69812;42.632;23.440;2023-07-08T11:12:57;95326.41;;;26.91;39.50
68179;BME280;69812;42.632;23.440;2023-07-08T11:15:42;95311.56;;;27.37;38.78
68179;BME280;69812;42.632;23.440;2023-07-08T11:18:16;95320.34;;;27.54;40.15
68179;BME280;69812;42.632;23.440;2023-07-08T11:21:02;95313.09;;;27.61;39.30
68179;BME280;69812;42.632;23.440;2023-07-08T11:23:38;95301.91;;;26.55;40.45
68179;BME280;69812;42.632;23.440;2023-07-08T11:29:02;95292.72;;;25.98;42.23
68179;BME280;69812;42.632;23.440;2023-07-08T11:31:32;95298.22;;;26.09;41.21
68179;BME280;69812;42.632;23.440;2023-07-08T11:34:02;95283.13;;;26.16;41.50
68179;BME280;69812;42.632;23.440;2023-07-08T11:36:32;95302.72;;;26.20;40.82
68179;BME280;69812;42.632;23.440;2023-07-08T11:38:58;95297.50;;;26.01;41.88
68179;BME280;69812;42.632;23.440;2023-07-08T11:41:31;95297.63;;;26.07;41.54
68179;BME280;69812;42.632;23.440;2023-07-08T11:44:04;95306.84;;;26.39;40.38
68179;BME280;69812;42.632;23.440;2023-07-08T11:46:32;95303.31;;;26.69;38.73
68179;BME280;69812;42.632;23.440;2023-07-08T11:49:03;95304.78;;;26.65;37.73
68179;BME280;69812;42.632;23.440;2023-07-08T11:51:39;95307.19;;;26.67;39.52
68179;BME280;69812;42.632;23.440;2023-07-08T11:54:31;95314.47;;;26.41;39.55
68179;BME280;69812;42.632;23.440;2023-07-08T11:57:04;95315.31;;;26.53;39.02
68179;BME280;69812;42.632;23.440;2023-07-08T11:59:33;95303.31;;;26.57;39.44
68179;BME280;69812;42.632;23.440;2023-07-08T12:02:22;95304.34;;;27.32;38.21
68179;BME280;69812;42.632;23.440;2023-07-08T12:05:02;95299.28;;;28.17;36.44
68179;BME280;69812;42.632;23.440;2023-07-08T12:07:37;95297.91;;;27.97;38.05
68179;BME280;69812;42.632;23.440;2023-07-08T12:12:36;95295.03;;;27.01;39.74
68179;BME280;69812;42.632;23.440;2023-07-08T12:15:25;95293.91;;;25.84;40.63
68179;BME280;69812;42.632;23.440;2023-07-08T12:17:56;95302.56;;;26.03;40.86
68179;BME280;69812;42.632;23.440;2023-07-08T12:20:30;95296.50;;;26.02;40.70
68179;BME280;69812;42.632;23.440;2023-07-08T12:22:56;95294.47;;;26.28;41.31
68179;BME280;69812;42.632;23.440;2023-07-08T12:25:33;95276.22;;;26.57;38.52
68179;BME280;69812;42.632;23.440;2023-07-08T12:28:03;95283.81;;;26.94;38.16
68179;BME280;69812;42.632;23.440;2023-07-08T12:30:47;95286.59;;;26.75;39.87
68179;BME280;69812;42.632;23.440;2023-07-08T12:33:15;95294.72;;;26.62;39.24
68179;BME280;69812;42.632;23.440;2023-07-08T12:35:42;95291.34;;;27.02;38.88
68179;BME280;69812;42.632;23.440;2023-07-08T12:40:58;95284.63;;;26.94;37.87
68179;BME280;69812;42.632;23.440;2023-07-08T12:43:28;95294.41;;;27.92;36.98
68179;BME280;69812;42.632;23.440;2023-07-08T12:45:53;95295.38;;;28.02;36.21
68179;BME280;69812;42.632;23.440;2023-07-08T12:48:22;95293.78;;;27.44;37.45
68179;BME280;69812;42.632;23.440;2023-07-08T12:50:53;95298.06;;;27.33;38.20
68179;BME280;69812;42.632;23.440;2023-07-08T12:53:23;95298.72;;;27.40;38.03
68179;BME280;69812;42.632;23.440;2023-07-08T12:55:52;95280.75;;;26.85;37.96
68179;BME280;69812;42.632;23.440;2023-07-08T12:58:25;95282.88;;;27.12;38.58
68179;BME280;69812;42.632;23.440;2023-07-08T13:00:55;95274.56;;;27.32;40.51
68179;BME280;69812;42.632;23.440;2023-07-08T13:03:30;95271.75;;;27.21;38.43
68179;BME280;69812;42.632;23.440;2023-07-08T13:05:57;95285.56;;;26.76;40.60
68179;BME280;69812;42.632;23.440;2023-07-08T13:08:26;95292.88;;;25.85;40.62
68179;BME280;69812;42.632;23.440;2023-07-08T13:10:59;95268.69;;;26.07;40.87
68179;BME280;69812;42.632;23.440;2023-07-08T13:13:31;95284.72;;;26.52;41.09
68179;BME280;69812;42.632;23.440;2023-07-08T13:16:01;95278.00;;;26.92;39.93
68179;BME280;69812;42.632;23.440;2023-07-08T13:18:37;95292.28;;;27.48;39.33
68179;BME280;69812;42.632;23.440;2023-07-08T13:21:09;95289.50;;;27.14;39.59
68179;BME280;69812;42.632;23.440;2023-07-08T13:23:35;95299.63;;;26.94;41.17
68179;BME280;69812;42.632;23.440;2023-07-08T13:26:12;95293.09;;;26.37;40.33
68179;BME280;69812;42.632;23.440;2023-07-08T13:28:41;95285.78;;;26.63;39.84
68179;BME280;69812;42.632;23.440;2023-07-08T13:34:08;95288.94;;;27.12;38.62
68179;BME280;69812;42.632;23.440;2023-07-08T13:36:39;95285.25;;;27.25;38.72
68179;BME280;69812;42.632;23.440;2023-07-08T13:39:09;95290.25;;;26.86;38.55
68179;BME280;69812;42.632;23.440;2023-07-08T13:41:47;95299.91;;;26.57;38.86
68179;BME280;69812;42.632;23.440;2023-07-08T13:44:18;95282.44;;;26.09;39.13
68179;BME280;69812;42.632;23.440;2023-07-08T13:47:17;95296.50;;;26.26;39.14
68179;BME280;69812;42.632;23.440;2023-07-08T13:50:16;95304.16;;;25.74;39.94
68179;BME280;69812;42.632;23.440;2023-07-08T13:52:44;95303.41;;;25.55;40.22
68179;BME280;69812;42.632;23.440;2023-07-08T13:55:28;95299.63;;;25.51;40.09
68179;BME280;69812;42.632;23.440;2023-07-08T13:58:01;95301.44;;;25.50;41.48
68179;BME280;69812;42.632;23.440;2023-07-08T14:00:30;95285.59;;;25.27;42.03